05:27
Airports
History
Links
Donate
Help keep this website running!
PayPal
Bitcoin
Information on this page is community maintained and may be outdated or inaccurate and is intended for reference only or PC simulator navigating.
Always use approved charts for navigating.
EDUF
FALKENBERG LONNEWITZ
FALKENBERG LONNEWITZ (EDUF)
Mühlberg, Brandenburg, Germany (4895)
(U)
Lat/Lng:51° 32' 52.54" N / 13° 13' 44.53" E
51.547929 / 13.229037
Elevation:284'ft 87mMSL
ID / ICAO:EDUF
Runways:1
Longest:(08-26) 1,190.9m 3,907ft Concrete
Distance To
Airport ID:
Airport Radio Frequencies
Tower: 130.12, 125.8
Nearby VORs <50NM
Nearby NDBs
Nearby WeatherUpdated 06-28-17 05:20 GMT
Nearby weather at ETSH, Holzdorf located 15.4 nautical miles from EDUF
Altimeter: 29.65
Visibility: 6.2 statute miles
Wind: 9 knots (090°)
Temp: 17°c 63°f
Humidity: 77.3%

METAR: ETSH 280520Z 09009KT 9999 SCT013 SCT220 17/13 Q1004 BLU+BLU+

(Powered by phpweather)
Runway 08 / 26
Dimensions:1190.9 x 29.9m 3907' x 98'ft
Surface:Concrete
Runway 08 [A]Runway 26 [B]
Heading:080°TH 260°TH
Lat:
Lng:
51° 32' 49.19"N
13° 13' 13.86"E
51° 32' 55.9"N
13° 14' 15.2"E
User Notes and Comments
Google Map
Nearby Airports
(C) Holzdorf 15.4 NM
ETSH (WX) N 350°
(U) RIESA GOHLIS 18.3 NM
EDAU SSE 163°
(C) OSCHATZ 18.6 NM
EDOQ SSW 200°
4 Finsterwalde 20.0 NM
EDAS ENE 72°
(U) GROSSENHAIN 21.7 NM
EDAK SE 139°
(U) FINSTERWALDE SCHACKSDORF 22.3 NM
EDUS E 79°
4 Reinsdorf 24.5 NM
EDOD N 356°
VFR Chart
Flight Planning at SkyVector.com